createdAt,value
2023-05-21T00:01:45.736Z,7.60
2023-05-21T00:06:47.548Z,7.43
2023-05-21T00:11:49.324Z,7.72
2023-05-21T00:16:51.096Z,7.60
2023-05-21T00:21:53.454Z,6.97
2023-05-21T00:26:56.325Z,7.35
2023-05-21T00:31:58.381Z,7.70
2023-05-21T00:37:02.765Z,7.30
2023-05-21T00:42:05.042Z,7.50
2023-05-21T00:47:08.193Z,6.93
2023-05-21T00:52:10.134Z,6.78
2023-05-21T00:57:12.133Z,7.20
2023-05-21T01:02:18.223Z,7.85
2023-05-21T01:07:20.263Z,7.78
2023-05-21T01:12:23.718Z,7.63
2023-05-21T01:17:28.564Z,6.68
2023-05-21T01:22:32.673Z,7.35
2023-05-21T01:27:34.504Z,7.32
2023-05-21T01:33:13.150Z,7.50
2023-05-21T01:38:31.238Z,7.47
2023-05-21T01:43:37.088Z,6.85
2023-05-21T01:48:39.171Z,6.40
2023-05-21T01:53:41.599Z,6.13
2023-05-21T01:58:44.077Z,5.50
2023-05-21T02:03:46.044Z,5.93
2023-05-21T02:08:49.475Z,6.15
2023-05-21T02:13:51.254Z,5.78
2023-05-21T02:18:57.372Z,6.18
2023-05-21T02:23:59.365Z,6.20
2023-05-21T02:29:01.550Z,5.10
2023-05-21T02:34:03.436Z,6.38
2023-05-21T02:39:05.209Z,6.57
2023-05-21T02:44:07.241Z,5.15
2023-05-21T02:49:09.058Z,5.70
2023-05-21T02:54:10.930Z,6.07
2023-05-21T02:59:12.728Z,5.80
2023-05-21T03:04:14.655Z,5.75
2023-05-21T03:09:16.833Z,5.82
2023-05-21T03:14:18.663Z,5.85
2023-05-21T03:19:21.472Z,6.25
2023-05-21T03:24:23.409Z,5.93
2023-05-21T03:29:25.376Z,6.57
2023-05-21T03:34:27.289Z,6.38
2023-05-21T03:39:29.097Z,5.70
2023-05-21T03:44:32.651Z,5.30
2023-05-21T03:49:51.032Z,5.82
2023-05-21T03:54:52.920Z,6.57
2023-05-21T03:59:54.890Z,6.35
2023-05-21T04:04:56.775Z,6.32
2023-05-21T04:09:59.988Z,6.22
2023-05-21T04:15:02.705Z,5.13
2023-05-21T04:20:05.098Z,5.55
2023-05-21T04:25:08.099Z,5.50
2023-05-21T04:30:12.812Z,5.70
2023-05-21T04:35:16.067Z,6.00
2023-05-21T04:40:24.291Z,5.15
2023-05-21T04:45:26.045Z,6.22
2023-05-21T04:50:30.896Z,6.22
2023-05-21T04:55:33.117Z,5.43
2023-05-21T05:00:37.775Z,5.82
2023-05-21T05:05:40.859Z,6.47
2023-05-21T05:10:42.754Z,6.53
2023-05-21T05:15:44.666Z,6.32
2023-05-21T05:20:47.772Z,6.93
2023-05-21T05:25:49.582Z,6.72
2023-05-21T05:30:51.409Z,7.20
2023-05-21T05:36:01.128Z,5.10
2023-05-21T05:41:03.326Z,7.57
2023-05-21T05:46:05.301Z,8.55
2023-05-21T05:51:07.334Z,7.55
2023-05-21T05:56:09.121Z,6.95
2023-05-21T06:01:11.855Z,7.20
2023-05-21T06:06:15.393Z,7.82
2023-05-21T06:11:20.941Z,7.35
2023-05-21T06:16:24.945Z,8.20
2023-05-21T06:21:28.563Z,8.68
2023-05-21T06:26:31.109Z,8.77
2023-05-21T06:31:34.272Z,9.68
2023-05-21T06:36:36.619Z,8.85
2023-05-21T06:41:38.452Z,9.25
2023-05-21T06:46:57.898Z,8.05
2023-05-21T06:51:59.906Z,8.38
2023-05-21T06:57:03.799Z,7.63
2023-05-21T07:37:55.525Z,6.22
2023-05-21T07:57:10.443Z,5.90
2023-05-21T08:02:30.025Z,6.13
2023-05-21T08:07:32.598Z,7.60
2023-05-21T08:12:34.853Z,5.50
2023-05-21T08:17:36.984Z,5.75
2023-05-21T08:22:38.833Z,6.53
2023-05-21T08:27:41.011Z,6.05
2023-05-21T08:32:44.048Z,6.35
2023-05-21T08:37:46.917Z,6.60
2023-05-21T08:43:01.157Z,5.63
2023-05-21T08:48:19.019Z,6.32
2023-05-21T08:53:28.696Z,5.70
2023-05-21T08:58:33.825Z,6.10
2023-05-21T09:03:39.792Z,5.50
2023-05-21T09:08:46.036Z,5.53
2023-05-21T09:13:58.331Z,5.10
2023-05-21T09:19:08.206Z,5.35
2023-05-21T09:24:11.155Z,5.13
2023-05-21T09:29:13.697Z,4.97
2023-05-21T09:34:15.957Z,4.55
2023-05-21T09:39:30.081Z,4.25
2023-05-21T09:44:35.859Z,4.88
2023-05-21T09:49:38.391Z,5.00
2023-05-21T09:54:40.708Z,4.50
2023-05-21T09:59:42.620Z,5.05
2023-05-21T10:04:47.897Z,4.32
2023-05-21T10:09:50.664Z,4.38
2023-05-21T10:15:00.178Z,4.07
2023-05-21T10:20:02.838Z,4.25
2023-05-21T10:25:08.095Z,4.65
2023-05-21T10:30:10.234Z,4.30
2023-05-21T10:35:14.534Z,4.43
2023-05-21T10:40:16.466Z,4.00
2023-05-21T10:45:57.090Z,3.90
2023-05-21T10:56:25.350Z,4.22
2023-05-21T11:01:36.509Z,4.00
2023-05-21T11:06:38.354Z,3.83
2023-05-21T11:11:44.193Z,3.78
2023-05-21T11:16:46.885Z,4.15
2023-05-21T11:21:51.646Z,3.63
2023-05-21T11:26:58.549Z,3.50
2023-05-21T11:32:05.429Z,3.80
2023-05-21T11:37:26.917Z,3.50
2023-05-21T11:42:38.791Z,3.85
2023-05-21T11:47:40.603Z,4.10
2023-05-21T11:52:43.035Z,3.70
2023-05-21T11:57:44.961Z,4.05
2023-05-21T12:02:50.719Z,3.85
2023-05-21T12:07:54.592Z,3.65
2023-05-21T12:12:57.501Z,3.88
2023-05-21T12:17:59.570Z,3.72
2023-05-21T12:23:01.339Z,3.40
2023-05-21T12:28:06.283Z,3.55
2023-05-21T12:33:08.372Z,3.97
2023-05-21T12:38:13.164Z,3.65
2023-05-21T12:43:14.995Z,4.10
2023-05-21T12:48:16.809Z,3.70
2023-05-21T12:53:18.544Z,3.70
2023-05-21T12:58:22.282Z,3.85
2023-05-21T13:03:24.049Z,3.80
2023-05-21T13:08:25.805Z,3.40
2023-05-21T13:13:27.597Z,3.88
2023-05-21T13:18:29.376Z,3.38
2023-05-21T13:23:31.115Z,3.80
2023-05-21T13:28:32.904Z,4.18
2023-05-21T13:33:34.760Z,3.63
2023-05-21T13:38:37.870Z,3.58
2023-05-21T13:43:42.984Z,3.78
2023-05-21T13:48:47.847Z,3.90
2023-05-21T13:53:49.648Z,3.92
2023-05-21T13:58:51.432Z,3.55
2023-05-21T14:03:53.235Z,3.80
2023-05-21T14:08:54.998Z,4.25
2023-05-21T14:13:57.085Z,3.22
2023-05-21T14:18:59.404Z,3.35
2023-05-21T14:24:01.238Z,3.50
2023-05-21T14:29:03.086Z,3.38
2023-05-21T14:34:06.932Z,3.35
2023-05-21T14:39:08.747Z,3.70
2023-05-21T14:44:10.478Z,3.45
2023-05-21T14:49:15.518Z,3.35
2023-05-21T14:54:17.262Z,3.08
2023-05-21T14:59:19.046Z,3.47
2023-05-21T15:04:20.858Z,3.55
2023-05-21T15:09:22.594Z,3.13
2023-05-21T15:14:24.326Z,3.33
2023-05-21T15:19:26.178Z,3.33
2023-05-21T15:24:28.073Z,3.30
2023-05-21T15:29:29.829Z,3.78
2023-05-21T15:34:32.628Z,3.88
2023-05-21T15:39:34.562Z,2.95
2023-05-21T15:44:36.317Z,3.22
2023-05-21T15:49:38.142Z,3.13
2023-05-21T15:54:39.885Z,3.10
2023-05-21T15:59:47.837Z,2.78
2023-05-21T16:04:51.765Z,3.00
2023-05-21T16:09:53.752Z,3.55
2023-05-21T16:14:55.558Z,3.00
2023-05-21T16:19:57.641Z,2.75
2023-05-21T16:24:59.386Z,3.45
2023-05-21T16:30:01.281Z,4.18
2023-05-21T16:35:06.816Z,3.28
2023-05-21T16:40:09.262Z,3.28
2023-05-21T16:45:20.384Z,3.45
2023-05-21T16:50:22.182Z,3.50
2023-05-21T16:55:23.919Z,3.50
2023-05-21T17:00:25.657Z,3.47
2023-05-21T17:05:27.488Z,3.58
2023-05-21T17:10:29.418Z,3.22
2023-05-21T17:15:31.727Z,2.85
2023-05-21T17:20:33.566Z,2.78
2023-05-21T17:25:35.893Z,3.40
2023-05-21T17:30:38.603Z,3.38
2023-05-21T17:35:40.481Z,2.95
2023-05-21T17:40:42.223Z,3.17
2023-05-21T17:45:44.009Z,3.03
2023-05-21T17:50:46.950Z,3.33
2023-05-21T17:55:48.755Z,2.85
2023-05-21T18:00:50.720Z,3.05
2023-05-21T18:05:52.503Z,3.60
2023-05-21T18:10:54.262Z,3.28
2023-05-21T18:15:59.159Z,3.15
2023-05-21T18:21:01.000Z,3.92
2023-05-21T18:26:03.064Z,3.25
2023-05-21T18:31:04.902Z,2.95
2023-05-21T18:36:06.885Z,3.10
2023-05-21T18:41:12.313Z,3.13
2023-05-21T18:46:16.329Z,3.10
2023-05-21T18:51:18.148Z,2.95
2023-05-21T18:56:22.335Z,3.00
2023-05-21T19:01:24.330Z,3.53
2023-05-21T19:06:27.813Z,3.10
2023-05-21T19:11:34.273Z,3.95
2023-05-21T19:16:36.170Z,4.00
2023-05-21T19:21:38.135Z,3.63
2023-05-21T19:26:40.244Z,3.70
2023-05-21T19:31:42.800Z,3.47
2023-05-21T19:36:52.769Z,4.85
2023-05-21T19:41:55.433Z,3.97
2023-05-21T19:46:57.260Z,4.03
2023-05-21T19:51:59.514Z,4.55
2023-05-21T19:57:01.290Z,4.70
2023-05-21T20:02:03.324Z,4.45
2023-05-21T20:07:05.301Z,4.43
2023-05-21T20:12:07.778Z,4.35
2023-05-21T20:17:10.198Z,4.32
2023-05-21T20:22:15.619Z,3.95
2023-05-21T20:27:19.530Z,4.05
2023-05-21T20:32:21.516Z,4.10
2023-05-21T20:37:26.191Z,4.55
2023-05-21T20:42:34.089Z,4.13
2023-05-21T20:47:36.274Z,4.32
2023-05-21T20:52:38.164Z,3.97
2023-05-21T20:57:40.039Z,3.83
2023-05-21T21:02:41.875Z,4.10
2023-05-21T21:07:45.758Z,4.07
2023-05-21T21:12:48.960Z,4.30
2023-05-21T21:17:50.995Z,4.45
2023-05-21T21:22:52.880Z,4.32
2023-05-21T21:27:54.797Z,4.70
2023-05-21T21:32:56.684Z,4.65
2023-05-21T21:37:58.670Z,5.10
2023-05-21T21:43:00.436Z,5.40
2023-05-21T21:48:02.265Z,4.53
2023-05-21T21:53:05.905Z,4.65
2023-05-21T21:58:07.683Z,5.05
2023-05-21T22:03:10.000Z,5.35
2023-05-21T22:08:13.016Z,5.50
2023-05-21T22:13:14.861Z,4.97
2023-05-21T22:18:25.326Z,4.85
2023-05-21T22:23:33.918Z,5.80
2023-05-21T22:28:35.835Z,4.68
2023-05-21T22:33:37.750Z,5.05
2023-05-21T22:38:39.544Z,5.13
2023-05-21T22:43:42.341Z,5.10
2023-05-21T22:48:46.123Z,5.30
2023-05-21T22:53:48.042Z,4.82
2023-05-21T22:58:49.817Z,4.95
2023-05-21T23:03:51.668Z,4.15
2023-05-21T23:08:53.433Z,4.60
2023-05-21T23:13:55.205Z,4.78
2023-05-21T23:18:57.048Z,4.53
2023-05-21T23:23:58.846Z,4.85
2023-05-21T23:29:01.769Z,5.70
2023-05-21T23:34:04.764Z,5.13
2023-05-21T23:39:06.534Z,5.47
2023-05-21T23:44:08.278Z,4.43
2023-05-21T23:49:10.068Z,4.35
2023-05-21T23:54:11.934Z,4.72
2023-05-21T23:59:15.108Z,4.55
